Bucholz Army Air Field
PKWA : now visible

Airfield :











YOU CAN JOIN US ON...

 
LOGIN :

Register | Disclaimer

   EN    FR    IT 

 









Legend :    VFR   Marginal VFR   IFR   Intensive IFR   Very Intensive IFR
Visi :
Ceiling :
>= 8 km
>= 3000ft
5 to 8 km
1000 to 3000 ft
1500m to 5 km
500 to 1000 ft
800 to 1500m
200 to 500 ft
< 800m
< 200 ft
Symbols :   Thunderstorms  Fog  Heavy snow  Heavy precipitations  Wind > 20 kt






- Airport Elevation : 9 ft
- IATA code : KWA


PKWA - Bucholz Army Air Field

CURRENT METAR :
  • 180740Z AUTO 19003KT 10SM CLR 28/24 A2978 RMK AO2 T02810240

EXPIRED METARs :
  • 180720Z AUTO 00000KT 10SM CLR 28/24 A2977 RMK AO2 T02840240
  • 180700Z AUTO 18003KT 10SM CLR 29/24 A2976 RMK AO2 T02880241
  • 180640Z AUTO 00000KT 10SM CLR 29/24 A2976 RMK AO2 T02920241
  • 180620Z AUTO 17003KT 10SM CLR 30/24 A2975 RMK AO2 T02960241
  • 180600Z AUTO 19003KT 10SM CLR 30/24 A2975 RMK AO2 T02990241
  • 180540Z AUTO 18004KT 10SM CLR 30/24 A2975 RMK AO2 T03000241
  • 180520Z AUTO 17006KT 10SM CLR 30/24 A2974 RMK AO2 T03020241
  • 180500Z AUTO 17006KT 10SM SCT016 30/24 A2974 RMK AO2 T03030242

TAF PKWA
Valid from the 18 at 06:00 until the 19 at 06:00 UTC


180538Z 1806/1906 17007KT P6SM FEW018 BKN150
KZOA FIR / Oceania



MET'MAP, your aeronautical weather chart ! - Copyright ORBIFLY December 2007 - Disclaimer

ORBIFLY MET'MAP TEAM :

Programming & Development : Alexandra Zaïnal
Concept & original design : Baudouin d'Aumeries
Assistance for programming : Marc-Olivier Méhu
Technical & hardware support : Manuel Goepfert

Contact : metmap@orbifly.com




SOURCES & CREDITS :

   NOAA       Earth
Advisory